createdAt,value
2018-03-23T00:01:16.783Z,23.46
2018-03-23T00:07:07.553Z,27.63
2018-03-23T00:12:58.105Z,26.54
2018-03-23T00:18:48.630Z,28.49
2018-03-23T00:24:39.268Z,28.35
2018-03-23T00:30:29.876Z,22.13
2018-03-23T00:36:20.550Z,20.66
2018-03-23T00:42:11.159Z,27.33
2018-03-23T00:48:01.739Z,24.38
2018-03-23T00:53:52.366Z,27.01
2018-03-23T00:59:42.962Z,27.74
2018-03-23T01:05:33.606Z,27.56
2018-03-23T01:11:24.182Z,21.05
2018-03-23T01:17:14.864Z,26.73
2018-03-23T01:23:05.425Z,25.84
2018-03-23T01:28:56.033Z,25.07
2018-03-23T01:34:46.640Z,26.84
2018-03-23T01:40:37.286Z,29.55
2018-03-23T01:46:27.879Z,24.54
2018-03-23T01:52:18.496Z,26.94
2018-03-23T01:58:09.111Z,23
2018-03-23T02:03:59.733Z,28.49
2018-03-23T02:09:50.361Z,27.93
2018-03-23T02:15:40.972Z,29.18
2018-03-23T02:21:31.599Z,28.76
2018-03-23T02:27:22.213Z,25.27
2018-03-23T02:33:12.800Z,30.54
2018-03-23T02:39:03.443Z,26.8
2018-03-23T02:44:54.058Z,20.12
2018-03-23T02:50:44.659Z,21.83
2018-03-23T02:56:35.291Z,24.01
2018-03-23T03:02:25.927Z,20.46
2018-03-23T03:08:16.526Z,18.09
2018-03-23T03:14:07.157Z,19.59
2018-03-23T03:19:57.849Z,19.21
2018-03-23T03:25:48.386Z,20.29
2018-03-23T03:31:38.963Z,16.85
2018-03-23T03:37:29.564Z,17.76
2018-03-23T03:43:20.170Z,16.73
2018-03-23T03:49:10.838Z,15.63
2018-03-23T03:55:01.389Z,14.82
2018-03-23T04:00:52.011Z,21.52
2018-03-23T04:06:42.609Z,14.11
2018-03-23T04:12:33.195Z,16.15
2018-03-23T04:18:23.858Z,14.17
2018-03-23T04:24:14.408Z,17.35
2018-03-23T04:30:05.074Z,12.88
2018-03-23T04:35:55.630Z,14.74
2018-03-23T04:41:46.252Z,14.66
2018-03-23T04:47:36.897Z,15.94
2018-03-23T04:53:27.485Z,15.81
2018-03-23T04:59:18.134Z,14.51
2018-03-23T05:05:08.706Z,15.99
2018-03-23T05:10:59.285Z,20.04
2018-03-23T05:16:49.952Z,17.44
2018-03-23T05:22:40.550Z,17.74
2018-03-23T05:28:31.141Z,17.08
2018-03-23T05:34:21.812Z,19.71
2018-03-23T05:40:12.414Z,18.54
2018-03-23T05:46:03.063Z,13.98
2018-03-23T05:51:53.603Z,17.2
2018-03-23T05:57:44.165Z,15.68
2018-03-23T06:03:34.783Z,16.81
2018-03-23T06:09:25.432Z,15.95
2018-03-23T06:15:16.047Z,13.22
2018-03-23T06:21:06.649Z,15.27
2018-03-23T06:26:57.336Z,16.65
2018-03-23T06:32:47.962Z,16.63
2018-03-23T06:38:38.523Z,12.74
2018-03-23T06:44:29.167Z,17.13
2018-03-23T06:50:19.847Z,15.32
2018-03-23T06:56:10.461Z,13.18
2018-03-23T07:02:01.098Z,16.67
2018-03-23T07:07:51.779Z,14.23
2018-03-23T07:13:42.392Z,13.31
2018-03-23T07:19:33.082Z,13.64
2018-03-23T07:25:23.722Z,15.3
2018-03-23T07:31:14.379Z,12.83
2018-03-23T07:37:05.064Z,11.22
2018-03-23T07:42:55.703Z,11.33
2018-03-23T07:48:46.391Z,12.7
2018-03-23T07:54:37.091Z,14.55
2018-03-23T08:00:27.859Z,11.5
2018-03-23T08:06:18.492Z,12.64
2018-03-23T08:12:09.265Z,12.05
2018-03-23T09:24:01.621Z,11.74
2018-03-23T09:29:52.402Z,12.73
2018-03-23T09:35:43.067Z,10.76
2018-03-23T09:41:33.826Z,14.71
2018-03-23T09:47:24.593Z,12.42
2018-03-23T09:53:15.294Z,12.75
2018-03-23T09:59:06.018Z,13.33
2018-03-23T10:04:56.798Z,11.43
2018-03-23T10:10:47.530Z,13.46
2018-03-23T10:16:38.319Z,11.25
2018-03-23T10:22:29.071Z,12.19
2018-03-23T10:28:19.836Z,11.35
2018-03-23T10:34:10.576Z,12.59
2018-03-23T10:40:01.376Z,13.21
2018-03-23T10:45:52.109Z,11.2
2018-03-23T10:51:42.896Z,11.91
2018-03-23T10:57:33.651Z,11.39
2018-03-23T11:03:24.430Z,13.37
2018-03-23T11:09:15.223Z,12.61
2018-03-23T11:15:05.952Z,12.27
2018-03-23T11:20:56.756Z,10.66
2018-03-23T11:26:47.520Z,13.96
2018-03-23T11:32:38.250Z,9.98
2018-03-23T11:38:29.096Z,9.38
2018-03-23T11:44:19.816Z,10.72
2018-03-23T11:50:10.578Z,10.97
2018-03-23T11:56:01.392Z,17.07
2018-03-23T12:01:52.119Z,12.79
2018-03-23T12:07:42.905Z,11.88
2018-03-23T12:13:33.664Z,10.5
2018-03-23T12:19:24.428Z,12.92
2018-03-23T12:25:15.167Z,12.04
2018-03-23T12:31:05.958Z,9.75
2018-03-23T12:36:56.686Z,11.2
2018-03-23T12:42:47.444Z,7.64
2018-03-23T12:48:38.303Z,12.76
2018-03-23T12:54:29.022Z,11.11
2018-03-23T13:00:19.796Z,8.6
2018-03-23T13:06:10.600Z,9.86
2018-03-23T13:12:01.394Z,12.54
2018-03-23T13:17:52.138Z,8.79
2018-03-23T13:23:42.917Z,9.37
2018-03-23T13:29:33.782Z,5.88
2018-03-23T13:35:24.491Z,8.56
2018-03-23T13:41:15.526Z,7.91
2018-03-23T13:47:06.178Z,6.37
2018-03-23T13:52:56.822Z,8.34
2018-03-23T13:58:47.838Z,5.84
2018-03-23T14:04:38.362Z,6.27
2018-03-23T14:10:29.104Z,5.46
2018-03-23T14:16:19.923Z,6.49
2018-03-23T14:22:10.686Z,7.9
2018-03-23T14:28:01.593Z,6.9
2018-03-23T14:33:52.261Z,6.87
2018-03-23T14:39:43.026Z,6.51
2018-03-23T14:45:33.788Z,7.26
2018-03-23T14:51:24.647Z,6.8
2018-03-23T14:57:15.328Z,5.82
2018-03-23T15:03:06.049Z,5.12
2018-03-23T15:08:56.885Z,5.02
2018-03-23T15:14:47.620Z,8.94
2018-03-23T15:20:38.400Z,5.54
2018-03-23T15:26:29.125Z,6.3
2018-03-23T15:32:19.855Z,6.39
2018-03-23T15:38:10.577Z,4.72
2018-03-23T15:44:01.312Z,10.53
2018-03-23T15:49:52.044Z,7.81
2018-03-23T15:55:42.845Z,5.97
2018-03-23T16:01:33.545Z,6.13
2018-03-23T16:07:24.186Z,7
2018-03-23T16:13:14.956Z,5.89
2018-03-23T16:19:05.648Z,8.91
2018-03-23T16:24:56.304Z,6.59
2018-03-23T16:30:47.084Z,7.12
2018-03-23T16:36:37.703Z,6.57
2018-03-23T16:42:28.408Z,5.16
2018-03-23T16:48:19.202Z,4.72
2018-03-23T16:54:09.798Z,5.46
2018-03-23T17:00:00.541Z,7.41
2018-03-23T17:05:51.201Z,6.37
2018-03-23T17:11:41.892Z,6.26
2018-03-23T17:17:32.551Z,7.13
2018-03-23T17:23:23.200Z,7.53
2018-03-23T17:29:13.906Z,7.03
2018-03-23T17:35:04.583Z,8.36
2018-03-23T17:40:55.244Z,5.11
2018-03-23T17:46:45.877Z,5.01
2018-03-23T17:52:36.527Z,3.77
2018-03-23T17:58:27.214Z,3.69
2018-03-23T18:04:17.909Z,3.69
2018-03-23T18:10:08.504Z,6.38
2018-03-23T18:15:59.150Z,5.64
2018-03-23T18:21:49.766Z,5.56
2018-03-23T18:27:40.448Z,4.51
2018-03-23T18:33:31.058Z,5.78
2018-03-23T18:39:21.702Z,5.94
2018-03-23T18:45:12.388Z,8.33
2018-03-23T18:51:02.966Z,5.4
2018-03-23T18:56:53.638Z,7.43
2018-03-23T19:02:44.473Z,5.32
2018-03-23T19:08:34.834Z,7.42
2018-03-23T19:14:25.487Z,6.77
2018-03-23T19:20:16.097Z,7.3
2018-03-23T19:26:06.728Z,7.7
2018-03-23T19:31:57.373Z,9.4
2018-03-23T19:37:47.982Z,8.67
2018-03-23T19:43:38.607Z,13.45
2018-03-23T19:49:29.243Z,11.14
2018-03-23T19:55:19.813Z,13.79
2018-03-23T20:01:10.517Z,7.61
2018-03-23T20:07:01.090Z,12.31
2018-03-23T20:12:51.712Z,10.2
2018-03-23T20:18:42.306Z,8.85
2018-03-23T20:24:32.940Z,11.41
2018-03-23T20:30:23.583Z,9.31
2018-03-23T20:36:14.232Z,8.86
2018-03-23T20:42:04.793Z,10.49
2018-03-23T20:47:55.371Z,10.99
2018-03-23T20:53:46.061Z,9.95
2018-03-23T20:59:36.633Z,8.62
2018-03-23T21:05:27.228Z,11.75
2018-03-23T21:11:17.839Z,11.06
2018-03-23T21:17:08.497Z,9.16
2018-03-23T21:22:59.094Z,14.45
2018-03-23T21:28:49.730Z,10.62
2018-03-23T21:34:40.345Z,8
2018-03-23T21:40:30.923Z,8.06
2018-03-23T21:46:21.559Z,7.29
2018-03-23T21:52:12.167Z,8.71
2018-03-23T21:58:02.788Z,7.23
2018-03-23T22:03:53.410Z,6.31
2018-03-23T22:09:44.015Z,12.8
2018-03-23T22:15:34.625Z,18
2018-03-23T22:21:25.212Z,25.99
2018-03-23T22:27:15.825Z,25.65
2018-03-23T22:33:06.432Z,27.56
2018-03-23T22:38:57.061Z,25.04
2018-03-23T22:44:47.655Z,18.59
2018-03-23T22:50:38.233Z,17.25
2018-03-23T22:56:28.832Z,15.1
2018-03-23T23:02:19.441Z,14.05
2018-03-23T23:08:10.026Z,14.08
2018-03-23T23:14:00.655Z,16.53
2018-03-23T23:19:51.240Z,12.84
2018-03-23T23:25:41.829Z,11.34
2018-03-23T23:31:32.427Z,10.69
2018-03-23T23:37:23.045Z,8.73
2018-03-23T23:43:13.629Z,10.47
2018-03-23T23:49:04.210Z,19.87
2018-03-23T23:54:54.816Z,14.58
